Time;durP1;ratioP1;P1;durP2;ratioP2;P2;SDS_P1;SDS_P2;PMS_P1;PMS_P2;Temp;Humidity;BMP_temperature;BMP_pressure;BME280_temperature;BME280_humidity;BME280_pressure;Samples;Min_cycle;Max_cycle;Signal;HPM_P1;HPM_P2
2022/10/25 00:01:05;;;;;;;14.23;1.75;;;17.00;99.90;;;;;;10533405;28;20073;-39
2022/10/25 00:06:09;;;;;;;13.60;1.77;;;16.80;99.90;;;;;;10534797;28;20061;-38
2022/10/25 00:11:18;;;;;;;11.10;1.50;;;16.40;99.90;;;;;;10539376;28;20560;-41
2022/10/25 00:16:22;;;;;;;14.10;2.53;;;16.00;99.90;;;;;;10545307;28;20078;-40
2022/10/25 00:21:25;;;;;;;18.50;1.90;;;16.00;99.90;;;;;;10531987;28;20084;-40
2022/10/25 00:26:28;;;;;;;16.98;2.85;;;15.50;99.90;;;;;;10540574;28;20117;-41
2022/10/25 00:31:30;;;;;;;8.38;1.73;;;16.10;99.90;;;;;;10537415;28;20040;-41
2022/10/25 00:36:32;;;;;;;10.77;1.90;;;16.50;99.90;;;;;;10516817;28;20123;-41
2022/10/25 00:41:35;;;;;;;24.20;3.23;;;16.20;99.90;;;;;;10524117;28;20226;-41
2022/10/25 00:46:37;;;;;;;14.15;1.83;;;16.50;99.90;;;;;;10522190;28;20133;-40
2022/10/25 00:51:44;;;;;;;30.60;3.43;;;15.50;99.90;;;;;;10523353;28;20060;-41
2022/10/25 00:56:50;;;;;;;22.27;2.47;;;15.50;99.90;;;;;;10534442;28;20085;-41
2022/10/25 01:01:53;;;;;;;22.45;2.72;;;16.00;99.90;;;;;;10520367;28;20047;-40
2022/10/25 01:06:55;;;;;;;16.30;2.30;;;16.00;99.90;;;;;;10527234;28;20048;-40
2022/10/25 01:11:58;;;;;;;18.97;2.07;;;16.60;99.90;;;;;;10529231;28;20078;-39
2022/10/25 01:17:08;;;;;;;6.20;1.40;;;15.80;99.90;;;;;;10533549;28;20074;-39
2022/10/25 01:22:15;;;;;;;18.83;2.63;;;16.60;99.90;;;;;;10522321;28;20063;-39
2022/10/25 01:27:41;;;;;;;21.10;2.65;;;16.10;99.90;;;;;;10538013;28;20469;-39
2022/10/25 01:32:52;;;;;;;9.38;1.80;;;15.90;99.90;;;;;;10520492;28;20525;-40
2022/10/25 01:38:06;;;;;;;19.58;3.35;;;17.10;99.90;;;;;;10537453;28;20079;-37
2022/10/25 01:43:13;;;;;;;21.67;2.60;;;16.20;99.90;;;;;;10527896;28;20063;-36
2022/10/25 01:48:22;;;;;;;9.27;2.47;;;16.00;99.90;;;;;;10522186;28;20551;-41
2022/10/25 01:53:24;;;;;;;22.80;2.72;;;15.90;99.90;;;;;;10534383;28;20476;-40
2022/10/25 01:58:37;;;;;;;16.27;2.33;;;15.50;99.90;;;;;;10525912;28;20047;-39
2022/10/25 02:03:48;;;;;;;24.15;2.22;;;15.80;99.90;;;;;;10527915;28;20048;-38
2022/10/25 02:08:56;;;;;;;20.17;3.25;;;15.60;99.90;;;;;;10530770;28;20549;-38
2022/10/25 02:14:12;;;;;;;15.27;2.22;;;15.80;99.90;;;;;;10516360;28;20492;-40
2022/10/25 02:19:20;;;;;;;11.43;1.85;;;15.50;99.90;;;;;;10518843;28;20089;-40
2022/10/25 02:24:25;;;;;;;7.03;1.30;;;16.90;99.90;;;;;;10529133;28;20149;-41
2022/10/25 02:29:30;;;;;;;23.33;3.15;;;17.20;99.90;;;;;;10536841;28;20036;-39
2022/10/25 02:34:34;;;;;;;10.65;1.35;;;16.10;99.90;;;;;;10531082;28;20040;-40
2022/10/25 02:39:36;;;;;;;11.95;1.63;;;16.10;99.90;;;;;;10529559;28;20131;-40
2022/10/25 02:44:38;;;;;;;8.25;1.45;;;16.10;99.90;;;;;;10529108;28;20090;-41
2022/10/25 02:49:41;;;;;;;14.23;1.93;;;16.30;99.90;;;;;;10530340;28;20130;-40
2022/10/25 02:54:43;;;;;;;17.17;2.58;;;16.40;99.90;;;;;;10529231;28;20514;-40
2022/10/25 02:59:45;;;;;;;16.05;2.33;;;15.90;99.90;;;;;;10526989;28;20450;-40
2022/10/25 03:04:48;;;;;;;7.43;1.33;;;15.40;99.90;;;;;;10524228;28;20075;-40
2022/10/25 03:09:50;;;;;;;12.88;1.80;;;16.10;99.90;;;;;;10526842;28;20690;-40
2022/10/25 03:14:51;;;;;;;6.67;0.80;;;16.70;99.90;;;;;;10527771;28;20239;-40
2022/10/25 03:19:55;;;;;;;16.43;2.00;;;16.10;99.90;;;;;;10534524;28;20067;-40
2022/10/25 03:24:57;;;;;;;13.82;1.85;;;16.00;99.90;;;;;;10529723;28;20056;-40
2022/10/25 03:29:58;;;;;;;18.30;1.47;;;15.70;99.90;;;;;;10523836;28;20063;-36
2022/10/25 03:35:01;;;;;;;11.60;1.57;;;16.10;99.90;;;;;;10514446;28;20079;-40
2022/10/25 03:40:04;;;;;;;16.90;2.65;;;16.60;99.90;;;;;;10530202;28;20534;-40
2022/10/25 03:45:07;;;;;;;21.30;3.42;;;16.70;99.90;;;;;;10526199;28;20708;-39
2022/10/25 03:50:10;;;;;;;;;;;15.80;99.90;;;;;;10531135;28;20209;-40
2022/10/25 03:55:12;;;;;;;19.55;2.47;;;16.10;99.90;;;;;;10529543;28;19924;-39
2022/10/25 04:00:15;;;;;;;22.83;2.77;;;17.00;99.90;;;;;;10514637;28;20075;-39
2022/10/25 04:05:18;;;;;;;;;;;17.20;99.90;;;;;;10527345;28;20083;-39
2022/10/25 04:10:20;;;;;;;;;;;17.20;99.90;;;;;;10531018;28;20031;-40
2022/10/25 04:15:22;;;;;;;15.18;2.33;;;16.40;99.90;;;;;;10530082;28;19959;-39
2022/10/25 04:20:26;;;;;;;6.03;1.05;;;16.50;99.90;;;;;;10537742;28;20121;-39
2022/10/25 04:25:28;;;;;;;15.02;2.25;;;17.00;99.90;;;;;;10535128;28;20093;-40
2022/10/25 04:30:30;;;;;;;6.57;1.60;;;17.90;98.80;;;;;;10531681;28;20545;-41
2022/10/25 04:35:33;;;;;;;5.95;1.30;;;17.60;99.70;;;;;;10525800;28;20048;-39
2022/10/25 04:40:35;;;;;;;9.63;1.30;;;17.40;99.90;;;;;;10534463;28;20121;-40
2022/10/25 04:45:37;;;;;;;5.10;1.07;;;17.70;99.10;;;;;;10532643;28;20063;-40
2022/10/25 04:50:41;;;;;;;7.97;1.30;;;18.30;97.30;;;;;;10528287;28;20121;-40
2022/10/25 04:55:42;;;;;;;13.10;1.50;;;17.90;97.90;;;;;;10540668;28;20531;-40
2022/10/25 05:00:46;;;;;;;7.13;1.48;;;17.50;98.80;;;;;;10523089;28;20477;-38
2022/10/25 05:05:50;;;;;;;7.45;1.77;;;18.20;97.20;;;;;;10534278;28;20134;-41
2022/10/25 05:10:54;;;;;;;10.90;1.50;;;17.60;98.70;;;;;;10520802;28;20098;-40
2022/10/25 05:15:58;;;;;;;15.27;1.92;;;17.20;99.90;;;;;;10530886;28;20059;-41
2022/10/25 05:21:03;;;;;;;13.55;2.25;;;16.90;99.90;;;;;;10520575;28;20075;-40
2022/10/25 05:26:07;;;;;;;5.93;1.20;;;17.40;99.70;;;;;;10525920;28;20040;-36
2022/10/25 05:31:13;;;;;;;6.72;1.13;;;17.60;98.50;;;;;;10526523;28;20105;-40
2022/10/25 05:36:16;;;;;;;7.28;1.45;;;17.40;99.20;;;;;;10524910;28;20063;-40
2022/10/25 05:41:19;;;;;;;9.77;1.60;;;17.60;98.60;;;;;;10530675;28;20044;-40
2022/10/25 05:46:21;;;;;;;;;;;18.50;95.70;;;;;;10520387;28;20048;-40
2022/10/25 05:51:27;;;;;;;7.50;1.23;;;18.00;97.40;;;;;;10529193;28;20392;-40
2022/10/25 05:56:30;;;;;;;3.03;1.30;;;18.10;96.80;;;;;;10529203;28;20040;-39
2022/10/25 06:01:31;;;;;;;4.70;1.02;;;18.20;96.60;;;;;;10523639;28;20079;-40
2022/10/25 06:06:36;;;;;;;4.22;0.95;;;18.60;94.70;;;;;;10524465;28;20083;-40
2022/10/25 06:11:39;;;;;;;8.43;1.55;;;18.70;94.50;;;;;;10528821;28;20140;-37
2022/10/25 06:16:41;;;;;;;6.25;1.55;;;17.90;97.00;;;;;;10526239;28;20097;-40
2022/10/25 06:21:45;;;;;;;4.05;1.10;;;18.10;96.00;;;;;;10524610;28;20056;-39
2022/10/25 06:26:47;;;;;;;3.40;1.30;;;17.80;97.10;;;;;;10527349;28;20077;-41
2022/10/25 06:31:49;;;;;;;10.67;3.03;;;17.50;98.50;;;;;;10526098;28;20089;-39
2022/10/25 06:36:52;;;;;;;8.10;2.27;;;17.30;98.60;;;;;;10507202;28;20055;-41
2022/10/25 06:41:54;;;;;;;7.07;2.22;;;17.10;99.00;;;;;;10524904;28;20075;-40
2022/10/25 06:46:56;;;;;;;4.83;1.20;;;17.40;98.80;;;;;;10524129;28;20050;-39
2022/10/25 06:51:59;;;;;;;7.45;1.38;;;16.60;99.90;;;;;;10526540;28;20131;-41
2022/10/25 06:57:01;;;;;;;7.78;2.22;;;17.50;98.80;;;;;;10526735;28;20123;-39
2022/10/25 07:02:02;;;;;;;13.65;2.33;;;18.30;95.30;;;;;;10523949;28;20075;-39
2022/10/25 07:07:05;;;;;;;5.43;1.40;;;17.60;97.50;;;;;;10529550;28;20488;-39
2022/10/25 07:12:07;;;;;;;9.48;1.83;;;17.40;98.40;;;;;;10526706;28;20044;-39
2022/10/25 07:17:09;;;;;;;4.33;0.97;;;17.40;98.50;;;;;;10528574;28;20389;-40
2022/10/25 07:22:12;;;;;;;12.83;3.37;;;17.80;97.90;;;;;;10527530;28;20596;-39
2022/10/25 07:27:14;;;;;;;5.03;1.45;;;17.90;96.40;;;;;;10513912;28;20428;-39
2022/10/25 07:32:16;;;;;;;4.13;0.93;;;17.00;99.90;;;;;;10511809;28;20083;-38
2022/10/25 07:37:19;;;;;;;7.50;1.80;;;17.60;98.30;;;;;;10528806;28;21097;-39
2022/10/25 07:42:21;;;;;;;5.97;1.10;;;17.60;97.60;;;;;;10529566;28;20743;-40
2022/10/25 07:47:23;;;;;;;4.10;0.70;;;17.70;98.30;;;;;;10528264;28;20087;-40
2022/10/25 07:52:26;;;;;;;2.33;0.83;;;18.70;95.10;;;;;;10522661;28;20079;-40
2022/10/25 07:57:28;;;;;;;10.75;0.70;;;18.90;94.30;;;;;;10516736;28;20145;-39
2022/10/25 08:02:30;;;;;;;2.07;0.67;;;19.00;94.30;;;;;;10523159;28;20045;-39
2022/10/25 08:07:33;;;;;;;4.00;0.73;;;19.30;93.60;;;;;;10517080;28;20530;-40
2022/10/25 08:12:34;;;;;;;4.15;1.23;;;18.70;95.00;;;;;;10531319;28;20125;-40
2022/10/25 08:17:36;;;;;;;3.70;1.00;;;18.50;95.70;;;;;;10532400;28;20044;-40
2022/10/25 08:22:39;;;;;;;4.03;0.80;;;18.70;95.40;;;;;;10539712;28;20134;-40
2022/10/25 08:27:41;;;;;;;5.22;1.30;;;18.70;95.20;;;;;;10535010;28;20056;-40
2022/10/25 08:32:43;;;;;;;4.45;1.33;;;19.10;94.20;;;;;;10531018;28;20048;-41
2022/10/25 08:37:46;;;;;;;3.60;1.17;;;18.00;97.20;;;;;;10528881;28;20052;-33
2022/10/25 08:42:59;;;;;;;9.90;1.85;;;18.50;97.80;;;;;;10531505;28;20071;-49
2022/10/25 08:48:03;;;;;;;2.95;0.80;;;19.20;94.90;;;;;;10540586;28;20139;-54
2022/10/25 08:53:16;;;;;;;9.95;2.13;;;19.10;96.10;;;;;;10529753;28;20142;-40
2022/10/25 08:58:24;;;;;;;10.65;2.45;;;19.60;98.00;;;;;;10524546;28;20408;-43
2022/10/25 09:03:27;;;;;;;3.00;1.38;;;18.80;96.00;;;;;;10535084;28;20048;-44
2022/10/25 09:08:48;;;;;;;4.68;1.30;;;18.50;97.30;;;;;;10514853;28;20143;-42
2022/10/25 09:13:55;;;;;;;4.70;1.55;;;18.70;96.00;;;;;;10529190;28;20052;-42
2022/10/25 09:18:57;;;;;;;3.90;0.95;;;20.00;94.70;;;;;;10531079;28;20126;-42
2022/10/25 09:24:05;;;;;;;7.22;2.25;;;19.20;94.80;;;;;;10526772;28;20138;-41
2022/10/25 09:29:13;;;;;;;9.40;2.47;;;18.40;96.50;;;;;;10529214;28;20048;-44
2022/10/25 09:34:18;;;;;;;7.78;3.28;;;18.60;96.60;;;;;;10533848;28;20049;-44
2022/10/25 09:39:24;;;;;;;3.10;1.63;;;18.50;96.60;;;;;;10532628;28;20051;-40
2022/10/25 09:44:35;;;;;;;8.32;2.63;;;18.00;98.50;;;;;;10522632;28;20469;-40
2022/10/25 09:49:43;;;;;;;5.25;1.98;;;18.60;96.30;;;;;;10541682;28;20052;-43
2022/10/25 09:54:52;;;;;;;4.60;1.70;;;18.00;99.50;;;;;;10531034;28;20047;-43
2022/10/25 09:59:54;;;;;;;4.55;1.25;;;19.10;95.70;;;;;;10504683;28;20060;-42
2022/10/25 10:04:56;;;;;;;2.50;1.27;;;19.50;94.20;;;;;;10518376;28;20051;-35
2022/10/25 10:10:03;;;;;;;5.10;1.70;;;19.20;94.70;;;;;;10528272;28;20079;-39
2022/10/25 10:15:09;;;;;;;3.03;1.08;;;19.30;94.70;;;;;;10522764;28;20044;-44
2022/10/25 10:20:13;;;;;;;5.45;2.13;;;19.60;94.80;;;;;;10532181;28;20036;-44
2022/10/25 10:25:21;;;;;;;14.80;3.70;;;18.40;97.30;;;;;;10528418;28;20480;-50
2022/10/25 10:30:27;;;;;;;4.55;1.52;;;18.30;96.70;;;;;;10516006;28;20377;-50
2022/10/25 10:35:31;;;;;;;17.55;3.17;;;19.20;95.50;;;;;;10528758;28;20070;-47
2022/10/25 10:40:34;;;;;;;9.25;3.33;;;17.80;99.20;;;;;;10527635;28;20044;-45
2022/10/25 10:45:36;;;;;;;8.93;3.00;;;18.20;97.00;;;;;;10530226;28;20064;-47
2022/10/25 10:50:38;;;;;;;11.70;3.13;;;19.10;95.90;;;;;;10524929;28;20070;-48
2022/10/25 10:55:49;;;;;;;4.45;1.00;;;17.80;98.70;;;;;;10526004;28;20104;-38
2022/10/25 11:00:53;;;;;;;10.15;2.83;;;18.90;96.50;;;;;;10525630;28;20044;-47
2022/10/25 11:05:55;;;;;;;3.92;1.50;;;17.50;99.30;;;;;;10529807;28;20128;-49
2022/10/25 11:11:13;;;;;;;4.10;1.47;;;18.40;97.90;;;;;;10522691;28;20453;-51
2022/10/25 11:16:52;;;;;;;10.02;1.75;;;19.40;99.90;;;;;;10529056;28;20044;-47
2022/10/25 11:22:19;;;;;;;8.80;2.47;;;19.10;99.90;;;;;;10524736;28;20092;-49
2022/10/25 11:27:33;;;;;;;9.65;2.13;;;18.60;99.90;;;;;;10515512;28;22133;-45
2022/10/25 11:33:15;;;;;;;4.60;2.03;;;18.70;96.20;;;;;;10528248;28;20072;-52
2022/10/25 11:38:25;;;;;;;11.40;3.10;;;18.20;98.20;;;;;;10523557;28;20454;-51
2022/10/25 11:43:40;;;;;;;6.03;2.20;;;18.40;97.50;;;;;;10530137;28;20150;-49
2022/10/25 11:48:59;;;;;;;11.25;2.28;;;18.20;97.20;;;;;;10530952;28;20075;-46
2022/10/25 11:54:23;;;;;;;13.07;1.88;;;18.70;95.60;;;;;;10528636;28;20079;-48
2022/10/25 11:59:37;;;;;;;5.35;1.60;;;18.80;95.50;;;;;;10512873;28;20687;-48
2022/10/25 12:04:58;;;;;;;7.93;1.75;;;18.70;97.10;;;;;;10529825;28;20454;-47
2022/10/25 12:10:13;;;;;;;8.32;1.85;;;18.80;95.50;;;;;;10528748;28;20414;-48
2022/10/25 12:15:21;;;;;;;6.82;1.90;;;18.30;97.20;;;;;;10527707;28;20503;-49
2022/10/25 12:20:25;;;;;;;9.00;1.42;;;17.90;97.90;;;;;;10529656;28;20048;-47
2022/10/25 12:25:31;;;;;;;8.77;1.55;;;18.30;97.50;;;;;;10534956;28;20048;-47
2022/10/25 12:30:35;;;;;;;5.03;1.60;;;18.00;96.10;;;;;;10532996;28;20526;-46
2022/10/25 12:35:47;;;;;;;4.38;1.30;;;19.10;95.40;;;;;;10530840;28;20112;-49
2022/10/25 12:40:51;;;;;;;2.67;1.05;;;18.40;97.30;;;;;;10518871;28;20072;-49
2022/10/25 12:46:22;;;;;;;3.38;1.15;;;17.50;97.00;;;;;;10532545;28;20040;-49
2022/10/25 12:51:39;;;;;;;9.15;2.17;;;18.70;96.40;;;;;;10528673;28;20442;-49
2022/10/25 12:56:54;;;;;;;4.80;1.90;;;18.50;97.10;;;;;;10529445;28;20097;-44
2022/10/25 13:02:35;;;;;;;6.88;1.30;;;19.20;95.40;;;;;;10528157;28;20822;-48
2022/10/25 13:07:38;;;;;;;2.75;1.08;;;19.20;95.10;;;;;;10428093;28;20044;-46
2022/10/25 13:12:40;;;;;;;10.77;2.10;;;19.00;95.60;;;;;;10533860;28;20129;-48
2022/10/25 13:18:02;;;;;;;13.35;1.60;;;19.20;94.50;;;;;;10548120;28;20135;-50
2022/10/25 13:23:57;;;;;;;10.53;1.77;;;19.30;94.90;;;;;;10532659;28;20060;-40
2022/10/25 13:29:01;;;;;;;7.40;1.23;;;19.50;94.20;;;;;;10512726;28;20259;-46
2022/10/25 13:34:30;;;;;;;6.07;1.15;;;20.00;93.30;;;;;;10518987;28;20062;-47
2022/10/25 13:39:37;;;;;;;4.57;1.15;;;20.40;91.80;;;;;;10523708;28;20590;-48
2022/10/25 13:44:52;;;;;;;5.90;1.45;;;20.50;90.20;;;;;;10520879;28;20509;-49
2022/10/25 13:49:56;;;;;;;10.82;1.40;;;20.60;91.40;;;;;;10510257;28;20048;-49
2022/10/25 13:55:00;;;;;;;1.50;0.80;;;21.40;90.40;;;;;;10525876;28;20129;-48
2022/10/25 14:00:02;;;;;;;7.65;1.35;;;20.80;91.50;;;;;;10518934;28;20419;-52
2022/10/25 14:05:10;;;;;;;9.00;1.40;;;20.90;90.00;;;;;;10528049;28;20127;-49
2022/10/25 14:10:33;;;;;;;7.65;1.35;;;22.10;92.10;;;;;;10527471;28;20551;-47
2022/10/25 14:15:47;;;;;;;6.53;0.80;;;21.00;90.80;;;;;;10524825;28;20068;-49
2022/10/25 14:20:55;;;;;;;5.32;1.73;;;20.20;87.90;;;;;;10533037;28;20171;-44
2022/10/25 14:25:58;;;;;;;7.88;1.40;;;21.30;90.40;;;;;;10526249;28;20048;-45
2022/10/25 14:31:01;;;;;;;4.65;0.88;;;21.50;84.50;;;;;;10524890;28;20048;-50
2022/10/25 14:36:24;;;;;;;4.68;1.58;;;21.30;90.10;;;;;;10524169;28;20054;-49
2022/10/25 14:41:28;;;;;;;2.38;0.80;;;20.80;85.60;;;;;;10540806;28;20472;-43
2022/10/25 14:46:32;;;;;;;4.82;0.98;;;21.20;87.90;;;;;;10528366;28;20092;-48
2022/10/25 14:51:38;;;;;;;8.82;1.65;;;21.50;90.10;;;;;;10510587;28;20416;-46
2022/10/25 14:56:42;;;;;;;8.57;1.38;;;21.70;87.90;;;;;;10527620;28;20060;-43
2022/10/25 15:01:52;;;;;;;3.33;0.70;;;21.90;87.80;;;;;;10520859;28;20086;-48
2022/10/25 15:06:56;;;;;;;3.20;1.10;;;21.70;88.80;;;;;;10522418;28;20055;-45
2022/10/25 15:12:06;;;;;;;5.72;0.93;;;22.00;87.40;;;;;;10536273;28;20076;-50
2022/10/25 15:17:16;;;;;;;1.60;0.60;;;21.00;85.00;;;;;;10528780;28;20119;-51
2022/10/25 15:22:20;;;;;;;2.65;0.75;;;22.10;85.20;;;;;;10523488;28;20156;-48
2022/10/25 15:27:30;;;;;;;2.03;0.57;;;22.10;84.80;;;;;;10521591;28;20048;-47
2022/10/25 15:32:33;;;;;;;1.48;0.30;;;22.20;85.90;;;;;;10527832;28;20484;-47
2022/10/25 15:37:39;;;;;;;0.80;0.52;;;22.20;85.60;;;;;;10522966;28;20062;-49
2022/10/25 15:42:41;;;;;;;0.70;0.40;;;22.20;84.10;;;;;;10524662;28;20048;-44
2022/10/25 15:47:46;;;;;;;2.65;0.70;;;22.20;84.30;;;;;;10522894;28;20128;-51
2022/10/25 15:52:49;;;;;;;1.92;0.70;;;22.30;83.90;;;;;;10527996;28;20075;-43
2022/10/25 15:57:51;;;;;;;2.72;0.68;;;22.30;84.10;;;;;;10526883;28;20246;-47
2022/10/25 16:02:53;;;;;;;;;;;22.30;83.90;;;;;;10541760;28;20048;-46
2022/10/25 16:07:56;;;;;;;5.00;0.43;;;22.30;83.70;;;;;;10523638;28;19920;-46
2022/10/25 16:13:03;;;;;;;2.08;0.47;;;22.60;83.70;;;;;;10521088;28;20064;-50
2022/10/25 16:18:05;;;;;;;2.70;0.40;;;23.30;84.60;;;;;;10506718;28;20131;-48
2022/10/25 16:23:08;;;;;;;2.80;0.55;;;22.20;83.90;;;;;;10530087;28;20138;-46
2022/10/25 16:28:14;;;;;;;4.35;0.75;;;22.60;84.30;;;;;;10530373;28;20054;-43
2022/10/25 16:33:16;;;;;;;1.38;0.55;;;22.30;84.40;;;;;;10535920;28;20094;-43
2022/10/25 16:38:19;;;;;;;;;;;22.10;84.50;;;;;;10521491;28;20068;-44
2022/10/25 16:43:21;;;;;;;4.38;0.88;;;22.90;85.10;;;;;;10526277;28;19989;-44
2022/10/25 16:48:24;;;;;;;4.18;0.82;;;22.10;84.80;;;;;;10523191;28;20093;-48
2022/10/25 16:53:27;;;;;;;3.58;0.80;;;22.30;85.20;;;;;;10529344;28;20040;-48
2022/10/25 16:58:29;;;;;;;7.03;1.23;;;21.50;84.90;;;;;;10533468;28;20098;-45
2022/10/25 17:03:31;;;;;;;4.53;1.10;;;22.00;85.40;;;;;;10521110;28;20043;-44
2022/10/25 17:08:34;;;;;;;5.93;1.20;;;22.10;86.00;;;;;;10527479;28;20052;-47
2022/10/25 17:13:37;;;;;;;3.90;1.08;;;22.00;86.20;;;;;;10532846;28;20079;-46
2022/10/25 17:18:39;;;;;;;7.00;1.30;;;22.10;86.50;;;;;;10515778;28;20060;-45
2022/10/25 17:23:43;;;;;;;5.13;1.55;;;22.10;86.60;;;;;;10530621;28;20078;-48
2022/10/25 17:28:44;;;;;;;3.90;1.10;;;22.00;86.80;;;;;;10522394;28;20393;-37
2022/10/25 17:33:47;;;;;;;3.22;1.60;;;22.00;86.90;;;;;;10540438;28;20535;-42
2022/10/25 17:38:50;;;;;;;;;;;22.00;87.00;;;;;;10526773;28;20044;-49
2022/10/25 17:43:53;;;;;;;10.05;1.65;;;22.00;87.40;;;;;;10539236;28;20385;-46
2022/10/25 17:48:56;;;;;;;;;;;21.90;87.60;;;;;;10531491;28;20109;-39
2022/10/25 17:53:59;;;;;;;5.82;1.92;;;22.00;87.50;;;;;;10524502;28;20394;-41
2022/10/25 17:59:01;;;;;;;5.68;1.50;;;22.00;87.90;;;;;;10526748;28;20067;-46
2022/10/25 18:04:03;;;;;;;3.42;1.13;;;22.00;88.40;;;;;;10506066;28;20052;-48
2022/10/25 18:09:06;;;;;;;5.18;1.73;;;22.00;88.60;;;;;;10531716;28;20083;-42
2022/10/25 18:14:08;;;;;;;6.95;1.52;;;21.90;88.80;;;;;;10512047;28;20130;-49
2022/10/25 18:19:13;;;;;;;6.75;2.25;;;21.80;88.80;;;;;;10513062;28;20280;-47
2022/10/25 18:24:17;;;;;;;4.32;1.20;;;21.90;89.20;;;;;;10536269;28;20052;-46
2022/10/25 18:29:19;;;;;;;11.00;1.55;;;21.00;88.80;;;;;;10497448;28;20090;-47
2022/10/25 18:34:21;;;;;;;4.43;1.42;;;22.00;89.50;;;;;;10536241;28;20048;-50
2022/10/25 18:39:24;;;;;;;7.38;1.58;;;21.90;89.60;;;;;;10529424;28;20119;-47
2022/10/25 18:44:26;;;;;;;5.53;1.30;;;21.90;90.00;;;;;;10523536;28;20052;-49
2022/10/25 18:49:28;;;;;;;6.65;2.10;;;21.80;90.10;;;;;;10516588;28;20155;-36
2022/10/25 18:54:31;;;;;;;7.47;1.80;;;21.80;90.10;;;;;;10512509;28;20056;-46
2022/10/25 18:59:33;;;;;;;7.60;1.90;;;21.80;90.10;;;;;;10523531;28;20139;-47
2022/10/25 19:04:35;;;;;;;9.60;1.88;;;21.80;90.50;;;;;;10520255;28;20059;-46
2022/10/25 19:09:38;;;;;;;4.35;1.30;;;21.80;90.30;;;;;;10512854;28;20045;-46
2022/10/25 19:14:39;;;;;;;5.03;1.55;;;21.70;90.40;;;;;;10515517;28;20571;-47
2022/10/25 19:19:41;;;;;;;4.63;1.73;;;21.80;90.40;;;;;;10528173;28;20048;-46
2022/10/25 19:24:45;;;;;;;6.85;1.50;;;21.80;90.70;;;;;;10531654;28;20048;-49
2022/10/25 19:29:48;;;;;;;4.18;1.23;;;21.40;90.30;;;;;;10528475;28;20071;-47
2022/10/25 19:34:49;;;;;;;5.45;1.17;;;22.40;90.50;;;;;;10521693;28;20060;-46
2022/10/25 19:39:53;;;;;;;3.22;1.30;;;21.80;90.60;;;;;;10543103;28;20071;-45
2022/10/25 19:44:54;;;;;;;6.28;1.58;;;22.70;90.60;;;;;;10541247;28;20052;-45
2022/10/25 19:49:56;;;;;;;5.18;1.40;;;21.70;90.30;;;;;;10531281;28;20135;-46
2022/10/25 19:54:59;;;;;;;6.88;1.70;;;21.70;90.30;;;;;;10532055;28;20075;-48
2022/10/25 20:00:01;;;;;;;4.30;1.20;;;21.70;90.20;;;;;;10530466;28;20064;-42
2022/10/25 20:05:03;;;;;;;7.07;1.30;;;22.20;90.30;;;;;;10521894;28;20105;-44
2022/10/25 20:10:07;;;;;;;4.45;1.45;;;21.70;90.10;;;;;;10534570;28;20156;-46
2022/10/25 20:15:13;;;;;;;8.90;1.50;;;21.60;90.20;;;;;;10535791;28;20128;-43
2022/10/25 20:20:14;;;;;;;5.80;1.50;;;21.70;90.00;;;;;;10528768;28;20061;-44
2022/10/25 20:25:18;;;;;;;3.38;1.30;;;21.60;90.00;;;;;;10528570;28;20135;-46
2022/10/25 20:30:20;;;;;;;2.33;1.33;;;21.60;90.10;;;;;;10532997;28;20403;-41
2022/10/25 20:35:22;;;;;;;3.92;1.52;;;21.60;89.90;;;;;;10537014;28;20048;-42
2022/10/25 20:40:25;;;;;;;3.22;1.40;;;21.60;89.90;;;;;;10532906;28;20168;-41
2022/10/25 20:45:29;;;;;;;5.18;0.88;;;21.30;89.80;;;;;;10534726;28;20068;-48
2022/10/25 20:50:31;;;;;;;7.47;1.50;;;21.50;90.00;;;;;;10531255;28;20079;-43
2022/10/25 20:55:34;;;;;;;2.38;1.02;;;20.80;89.50;;;;;;10524172;28;20477;-49
2022/10/25 21:00:36;;;;;;;7.32;1.20;;;21.40;90.00;;;;;;10523840;28;20067;-46
2022/10/25 21:05:41;;;;;;;;;;;21.40;90.10;;;;;;10529352;28;20052;-51
2022/10/25 21:10:52;;;;;;;2.53;1.35;;;21.30;90.00;;;;;;10529542;28;19919;-49
2022/10/25 21:15:54;;;;;;;4.05;1.77;;;21.30;90.10;;;;;;10531706;28;20730;-41
2022/10/25 21:21:00;;;;;;;3.05;1.13;;;21.40;90.00;;;;;;10530609;28;20079;-48
2022/10/25 21:26:05;;;;;;;5.80;1.75;;;21.40;90.00;;;;;;10537110;28;20489;-48
2022/10/25 21:31:09;;;;;;;3.08;1.35;;;21.30;90.00;;;;;;10541992;28;20050;-49
2022/10/25 21:36:13;;;;;;;7.15;1.30;;;21.30;90.10;;;;;;10529241;28;20097;-47
2022/10/25 21:41:19;;;;;;;4.57;1.02;;;21.30;90.00;;;;;;10534550;28;20044;-46
2022/10/25 21:46:22;;;;;;;7.05;1.10;;;22.60;90.40;;;;;;10513289;28;20096;-47
2022/10/25 21:51:24;;;;;;;4.82;1.08;;;21.20;90.00;;;;;;10534241;28;20182;-47
2022/10/25 21:56:28;;;;;;;6.25;1.38;;;21.20;90.00;;;;;;10523714;28;20067;-46
2022/10/25 22:01:31;;;;;;;6.82;1.20;;;21.30;90.10;;;;;;10525693;28;20529;-48
2022/10/25 22:06:34;;;;;;;9.02;2.88;;;21.20;89.90;;;;;;10533311;28;20040;-46
2022/10/25 22:11:38;;;;;;;3.97;1.23;;;21.10;90.00;;;;;;10519399;28;20164;-45
2022/10/25 22:16:41;;;;;;;3.55;1.23;;;21.00;90.00;;;;;;10502073;28;20140;-44
2022/10/25 22:21:42;;;;;;;;;;;20.40;89.50;;;;;;10516324;28;20131;-42
2022/10/25 22:26:46;;;;;;;5.47;1.07;;;21.10;90.00;;;;;;10515391;28;19959;-49
2022/10/25 22:31:47;;;;;;;3.20;1.30;;;21.10;89.90;;;;;;10529860;28;20079;-44
2022/10/25 22:36:49;;;;;;;4.00;1.20;;;21.10;89.90;;;;;;10515373;28;20056;-48
2022/10/25 22:41:53;;;;;;;8.95;2.08;;;21.00;89.90;;;;;;10516936;28;20128;-49
2022/10/25 22:46:55;;;;;;;3.70;1.45;;;21.10;89.80;;;;;;10534838;28;20101;-47
2022/10/25 22:51:57;;;;;;;2.80;1.45;;;21.10;90.20;;;;;;10528705;28;20052;-43
2022/10/25 22:57:00;;;;;;;7.72;1.58;;;21.00;89.90;;;;;;10526813;28;20113;-41
2022/10/25 23:02:02;;;;;;;3.65;1.13;;;21.00;89.80;;;;;;10520781;28;20135;-48
2022/10/25 23:07:04;;;;;;;4.30;1.10;;;21.00;89.80;;;;;;10521678;28;20477;-45
2022/10/25 23:12:07;;;;;;;2.75;1.02;;;21.00;89.70;;;;;;10521556;28;20076;-51
2022/10/25 23:17:09;;;;;;;2.90;1.30;;;21.00;89.60;;;;;;10512229;28;20419;-43
2022/10/25 23:22:11;;;;;;;2.08;1.17;;;21.00;89.70;;;;;;10533518;28;20427;-47
2022/10/25 23:27:14;;;;;;;4.95;1.30;;;21.00;89.70;;;;;;10528275;28;20044;-49
2022/10/25 23:32:16;;;;;;;4.20;1.58;;;20.90;89.70;;;;;;10520927;28;20131;-40
2022/10/25 23:37:18;;;;;;;3.05;1.60;;;21.00;89.60;;;;;;10520478;28;20089;-49
2022/10/25 23:42:21;;;;;;;4.70;1.88;;;20.90;89.60;;;;;;10528098;28;20064;-45
2022/10/25 23:47:23;;;;;;;4.47;1.83;;;21.00;89.50;;;;;;10511619;28;20131;-46
2022/10/25 23:52:25;;;;;;;1.92;1.40;;;20.90;89.60;;;;;;10522484;28;20135;-42
2022/10/25 23:57:28;;;;;;;2.63;1.23;;;22.20;90.10;;;;;;10517541;28;20131;-47
